Time;durP1;ratioP1;P1;durP2;ratioP2;P2;SDS_P1;SDS_P2;PMS_P1;PMS_P2;Temp;Humidity;BMP_temperature;BMP_pressure;BME280_temperature;BME280_humidity;BME280_pressure;Samples;Min_cycle;Max_cycle;Signal;HPM_P1;HPM_P2
2022/11/07 00:00:11;;;;;;;3.60;1.20;;;10.10;99.90;;;;;;4991312;28;20041;-58
2022/11/07 00:02:37;;;;;;;1.35;0.93;;;10.10;99.90;;;;;;4990249;28;20022;-58
2022/11/07 00:05:03;;;;;;;1.58;1.13;;;10.10;99.90;;;;;;4995959;28;20050;-55
2022/11/07 00:07:29;;;;;;;1.50;1.30;;;10.10;99.90;;;;;;4991299;28;20115;-59
2022/11/07 00:09:55;;;;;;;3.72;1.25;;;10.00;99.90;;;;;;4992021;28;20105;-58
2022/11/07 00:12:20;;;;;;;1.83;1.10;;;10.00;99.90;;;;;;4995585;28;20030;-59
2022/11/07 00:14:46;;;;;;;1.95;1.10;;;10.00;99.90;;;;;;4991133;28;20114;-58
2022/11/07 00:17:11;;;;;;;1.40;1.02;;;10.00;99.90;;;;;;4990389;28;20192;-57
2022/11/07 00:19:37;;;;;;;6.22;1.17;;;10.00;99.90;;;;;;4990225;28;20026;-59
2022/11/07 00:22:02;;;;;;;2.28;1.20;;;9.90;99.90;;;;;;4990366;28;20031;-59
2022/11/07 00:24:28;;;;;;;2.85;0.95;;;9.90;99.90;;;;;;4996782;28;20109;-57
2022/11/07 00:26:53;;;;;;;1.67;0.82;;;9.80;99.90;;;;;;4992096;28;20034;-58
2022/11/07 00:29:20;;;;;;;3.30;1.00;;;9.80;99.90;;;;;;4997368;28;20029;-58
2022/11/07 00:31:46;;;;;;;1.33;0.90;;;9.80;99.90;;;;;;4993539;28;20073;-58
2022/11/07 00:34:11;;;;;;;3.20;1.25;;;9.70;99.90;;;;;;4983973;28;20031;-59
2022/11/07 00:36:37;;;;;;;2.28;1.23;;;9.60;99.90;;;;;;4992261;28;20057;-59
2022/11/07 00:39:04;;;;;;;7.80;1.27;;;9.60;99.90;;;;;;4989559;28;20026;-58
2022/11/07 00:41:29;;;;;;;2.40;1.30;;;9.60;99.90;;;;;;4990137;28;20026;-58
2022/11/07 00:43:55;;;;;;;2.75;1.00;;;9.60;99.90;;;;;;4995623;28;20033;-59
2022/11/07 00:46:21;;;;;;;1.98;1.15;;;9.50;99.90;;;;;;4992845;28;20037;-58
2022/11/07 00:48:47;;;;;;;2.90;1.15;;;9.50;99.90;;;;;;4990051;28;20026;-55
2022/11/07 00:51:16;;;;;;;1.58;1.10;;;9.50;99.90;;;;;;4991818;28;20085;-57
2022/11/07 00:53:43;;;;;;;1.45;1.00;;;9.50;99.90;;;;;;4986390;28;20035;-55
2022/11/07 00:56:14;;;;;;;1.77;1.05;;;9.50;99.90;;;;;;4989756;28;20034;-57
2022/11/07 00:58:41;;;;;;;1.90;1.05;;;9.50;99.90;;;;;;4978094;28;20428;-53
2022/11/07 01:01:13;;;;;;;3.45;0.82;;;9.50;99.90;;;;;;4992567;28;20052;-56
2022/11/07 01:06:25;;;;;;;4.10;0.90;;;9.50;99.90;;;;;;4991023;28;20069;-57
2022/11/07 01:08:53;;;;;;;4.18;0.80;;;9.50;99.90;;;;;;4990491;28;20051;-57
2022/11/07 01:11:19;;;;;;;4.18;1.45;;;9.60;99.90;;;;;;4991362;28;20542;-53
2022/11/07 01:13:44;;;;;;;1.85;1.10;;;9.50;99.90;;;;;;4990737;28;20027;-58
2022/11/07 01:16:10;;;;;;;2.35;1.00;;;9.50;99.90;;;;;;4996927;28;20066;-59
2022/11/07 01:18:36;;;;;;;1.48;1.00;;;9.60;99.90;;;;;;4991577;28;20539;-57
2022/11/07 01:21:06;;;;;;;3.17;0.98;;;9.60;99.90;;;;;;4991076;28;20026;-58
2022/11/07 01:23:32;;;;;;;1.13;0.60;;;9.60;99.90;;;;;;4987451;28;20061;-57
2022/11/07 01:26:02;;;;;;;3.10;1.23;;;9.60;99.90;;;;;;4996025;28;20464;-58
2022/11/07 01:28:27;;;;;;;3.35;0.98;;;9.70;99.90;;;;;;4991385;28;20042;-57
2022/11/07 01:30:53;;;;;;;1.20;0.88;;;9.70;99.90;;;;;;4989582;28;20378;-57
2022/11/07 01:33:18;;;;;;;3.55;1.25;;;9.70;99.90;;;;;;4989301;28;20396;-56
2022/11/07 01:35:44;;;;;;;2.17;0.85;;;9.70;99.90;;;;;;4996841;28;20030;-56
2022/11/07 01:38:09;;;;;;;2.38;1.10;;;9.70;99.90;;;;;;4991433;28;20046;-56
2022/11/07 01:41:19;;;;;;;2.10;0.82;;;9.70;99.90;;;;;;4997038;28;20038;-57
2022/11/07 01:44:04;;;;;;;0.65;0.65;;;9.70;99.90;;;;;;4990387;28;20185;-59
2022/11/07 01:46:31;;;;;;;1.67;0.80;;;9.70;99.90;;;;;;4990176;28;20077;-58
2022/11/07 01:49:13;;;;;;;2.63;1.13;;;9.70;99.90;;;;;;4991153;28;20031;-58
2022/11/07 01:51:51;;;;;;;1.27;0.93;;;9.70;99.90;;;;;;4990340;28;20022;-58
2022/11/07 01:54:20;;;;;;;1.58;0.80;;;9.70;99.90;;;;;;4991209;28;20057;-59
2022/11/07 01:56:47;;;;;;;4.32;1.15;;;9.60;99.90;;;;;;4989001;28;20026;-59
2022/11/07 01:59:18;;;;;;;2.38;1.20;;;9.60;99.90;;;;;;4985748;28;20093;-58
2022/11/07 02:01:44;;;;;;;2.15;0.90;;;9.60;99.90;;;;;;4990451;28;20026;-57
2022/11/07 02:04:11;;;;;;;2.97;1.30;;;9.60;99.90;;;;;;4992229;28;20030;-57
2022/11/07 02:06:43;;;;;;;2.00;0.90;;;9.60;99.90;;;;;;4989163;28;20037;-57
2022/11/07 02:09:09;;;;;;;2.35;1.20;;;9.50;99.90;;;;;;4996380;28;20023;-55
2022/11/07 02:11:35;;;;;;;6.43;1.17;;;9.40;99.90;;;;;;4990645;28;20042;-56
2022/11/07 02:14:01;;;;;;;5.32;1.10;;;9.30;99.90;;;;;;4990542;28;20447;-56
2022/11/07 02:16:27;;;;;;;6.38;1.25;;;9.30;99.90;;;;;;4990240;28;20030;-54
2022/11/07 02:18:53;;;;;;;8.48;1.30;;;9.30;99.90;;;;;;4990513;28;20019;-56
2022/11/07 02:21:57;;;;;;;3.47;1.15;;;9.20;99.90;;;;;;4989380;28;20033;-57
2022/11/07 02:24:28;;;;;;;4.30;1.33;;;9.20;99.90;;;;;;4989601;28;20069;-57
2022/11/07 02:26:56;;;;;;;3.38;1.52;;;9.20;99.90;;;;;;4991027;28;20101;-57
2022/11/07 02:29:23;;;;;;;1.40;1.23;;;9.10;99.90;;;;;;4989071;28;20069;-57
2022/11/07 02:32:00;;;;;;;2.55;1.58;;;9.10;99.90;;;;;;4988917;28;20405;-54
2022/11/07 02:34:25;;;;;;;8.50;1.38;;;9.00;99.90;;;;;;4987013;28;20081;-58
2022/11/07 02:36:51;;;;;;;3.50;1.95;;;9.00;99.90;;;;;;4989556;28;20062;-58
2022/11/07 02:39:16;;;;;;;2.85;1.40;;;9.00;99.90;;;;;;4999641;28;20034;-57
2022/11/07 02:41:43;;;;;;;11.18;1.55;;;9.00;99.90;;;;;;4994908;28;20105;-58
2022/11/07 02:44:10;;;;;;;3.53;1.77;;;9.00;99.90;;;;;;4997660;28;20193;-56
2022/11/07 02:46:36;;;;;;;5.18;1.55;;;9.00;99.90;;;;;;4992506;28;20068;-55
2022/11/07 02:49:02;;;;;;;4.78;1.50;;;9.00;99.90;;;;;;4995583;28;20042;-57
2022/11/07 02:51:28;;;;;;;5.72;1.40;;;9.00;99.90;;;;;;4997932;28;20037;-57
2022/11/07 02:53:54;;;;;;;3.55;1.83;;;9.00;99.90;;;;;;4994697;28;20029;-58
2022/11/07 02:56:20;;;;;;;3.38;1.45;;;9.00;99.90;;;;;;4997653;28;20041;-58
2022/11/07 02:58:45;;;;;;;5.65;1.95;;;9.00;99.90;;;;;;4989399;28;20348;-57
2022/11/07 03:01:12;;;;;;;6.18;2.13;;;9.00;99.90;;;;;;4992824;28;20026;-56
2022/11/07 03:03:43;;;;;;;6.13;1.88;;;8.90;99.90;;;;;;4996300;28;20496;-58
2022/11/07 03:06:11;;;;;;;8.10;1.88;;;9.00;99.90;;;;;;4996403;28;20030;-56
2022/11/07 03:08:37;;;;;;;5.75;2.30;;;8.90;99.90;;;;;;4994307;28;20065;-58
2022/11/07 03:11:03;;;;;;;2.90;1.77;;;8.90;99.90;;;;;;4994334;28;20058;-58
2022/11/07 03:13:28;;;;;;;6.55;2.00;;;8.90;99.90;;;;;;4995692;28;20054;-58
2022/11/07 03:15:54;;;;;;;3.83;1.70;;;8.80;99.90;;;;;;4988759;28;21023;-59
2022/11/07 03:18:20;;;;;;;5.78;1.90;;;8.80;99.90;;;;;;4983357;28;20583;-56
2022/11/07 03:20:46;;;;;;;7.68;1.80;;;8.80;99.90;;;;;;4995932;28;20068;-57
2022/11/07 03:23:12;;;;;;;5.22;1.90;;;8.70;99.90;;;;;;4986438;28;20038;-54
2022/11/07 03:25:37;;;;;;;7.25;1.90;;;8.70;99.90;;;;;;4993866;28;20415;-58
2022/11/07 03:28:03;;;;;;;5.10;1.70;;;8.70;99.90;;;;;;4994496;28;20057;-57
2022/11/07 03:30:29;;;;;;;7.80;2.15;;;8.60;99.90;;;;;;5000416;28;20599;-58
2022/11/07 03:32:55;;;;;;;10.15;2.08;;;8.60;99.90;;;;;;4991975;28;20081;-58
2022/11/07 03:35:21;;;;;;;3.50;1.92;;;8.60;99.90;;;;;;4994013;28;20026;-58
2022/11/07 03:37:48;;;;;;;7.18;1.85;;;8.50;99.90;;;;;;4995063;28;20026;-58
2022/11/07 03:40:14;;;;;;;5.93;2.10;;;8.50;99.90;;;;;;4989634;28;20031;-58
2022/11/07 03:42:42;;;;;;;4.00;1.50;;;8.50;99.90;;;;;;4990407;28;20031;-59
2022/11/07 03:45:09;;;;;;;6.80;1.90;;;8.50;99.90;;;;;;4992016;28;20022;-58
2022/11/07 03:47:36;;;;;;;5.75;1.75;;;8.50;99.90;;;;;;5014336;23;20046;-54
2022/11/07 03:50:03;;;;;;;3.78;1.65;;;8.50;99.90;;;;;;4990802;28;20113;-59
2022/11/07 03:52:28;;;;;;;5.43;1.88;;;8.40;99.90;;;;;;4971858;28;20027;-56
2022/11/07 03:54:54;;;;;;;6.68;2.10;;;8.50;99.90;;;;;;4988880;28;20034;-60
2022/11/07 03:57:19;;;;;;;11.13;1.80;;;8.40;99.90;;;;;;4988776;28;20489;-60
2022/11/07 03:59:45;;;;;;;10.15;2.00;;;8.50;99.90;;;;;;4989316;28;20886;-60
2022/11/07 04:02:11;;;;;;;7.13;1.77;;;8.50;99.90;;;;;;4988144;28;22180;-56
2022/11/07 04:04:36;;;;;;;5.95;2.22;;;8.40;99.90;;;;;;4994393;28;20400;-55
2022/11/07 04:07:02;;;;;;;6.28;1.88;;;8.40;99.90;;;;;;4994180;28;20125;-59
2022/11/07 04:09:27;;;;;;;10.10;2.00;;;8.40;99.90;;;;;;4990152;28;20031;-58
2022/11/07 04:17:21;;;;;;;14.27;2.08;;;8.30;99.90;;;;;;4984427;28;20130;-57
2022/11/07 04:19:50;;;;;;;5.10;2.25;;;8.20;99.90;;;;;;4989436;28;20026;-57
2022/11/07 04:22:17;;;;;;;9.02;2.22;;;8.20;99.90;;;;;;4991712;28;20058;-58
2022/11/07 04:24:43;;;;;;;4.05;1.85;;;8.10;99.90;;;;;;4996310;28;20061;-57
2022/11/07 04:29:56;;;;;;;11.90;2.42;;;8.10;99.90;;;;;;4989536;28;20108;-59
2022/11/07 04:32:23;;;;;;;8.05;3.58;;;8.10;99.90;;;;;;4990057;28;20045;-55
2022/11/07 04:34:49;;;;;;;8.05;2.42;;;8.10;99.90;;;;;;4991649;28;20031;-57
2022/11/07 04:37:15;;;;;;;7.63;2.58;;;8.00;99.90;;;;;;4991203;28;20087;-55
2022/11/07 04:39:40;;;;;;;6.32;2.45;;;7.90;99.90;;;;;;4989202;28;20439;-57
2022/11/07 04:42:06;;;;;;;14.43;2.75;;;7.90;99.90;;;;;;4991198;28;20035;-58
2022/11/07 04:44:32;;;;;;;16.17;3.15;;;8.00;99.90;;;;;;4991837;28;20038;-57
2022/11/07 04:46:57;;;;;;;7.07;2.90;;;7.90;99.90;;;;;;4987186;28;20041;-58
2022/11/07 04:49:23;;;;;;;5.65;3.05;;;7.90;99.90;;;;;;4986156;28;20077;-61
2022/11/07 04:51:48;;;;;;;4.25;2.55;;;7.90;99.90;;;;;;4987149;28;20054;-59
2022/11/07 04:54:14;;;;;;;13.32;3.17;;;7.90;99.90;;;;;;4985940;28;20053;-58
2022/11/07 04:56:41;;;;;;;4.90;2.47;;;7.90;99.90;;;;;;4983459;28;20081;-59
2022/11/07 04:59:07;;;;;;;7.65;2.55;;;7.90;99.90;;;;;;4981776;28;20034;-56
2022/11/07 05:01:33;;;;;;;6.20;2.47;;;7.90;99.90;;;;;;4981830;28;20105;-58
2022/11/07 05:03:59;;;;;;;7.15;2.45;;;7.90;99.90;;;;;;4984043;28;20026;-58
2022/11/07 05:06:24;;;;;;;7.78;2.70;;;7.90;99.90;;;;;;4988680;28;20072;-56
2022/11/07 05:08:50;;;;;;;4.85;2.47;;;7.90;99.90;;;;;;4985961;28;20061;-55
2022/11/07 05:11:15;;;;;;;12.18;2.60;;;8.00;99.90;;;;;;4986722;28;20480;-57
2022/11/07 05:13:41;;;;;;;7.57;2.63;;;8.00;99.90;;;;;;4984936;28;20028;-57
2022/11/07 05:16:18;;;;;;;8.88;3.08;;;8.00;99.90;;;;;;4996852;28;20113;-58
2022/11/07 05:18:43;;;;;;;6.10;2.63;;;8.00;99.90;;;;;;4981516;28;20062;-58
2022/11/07 05:21:09;;;;;;;5.35;2.20;;;8.10;99.90;;;;;;4983401;28;20085;-57
2022/11/07 05:23:35;;;;;;;9.50;2.88;;;8.10;99.90;;;;;;4988419;28;20034;-57
2022/11/07 05:26:01;;;;;;;6.65;1.80;;;8.10;99.90;;;;;;4981565;28;20037;-59
2022/11/07 05:28:29;;;;;;;15.07;2.55;;;8.10;99.90;;;;;;4986928;28;20037;-59
2022/11/07 05:31:01;;;;;;;6.15;2.70;;;8.30;99.90;;;;;;4986439;28;20026;-58
2022/11/07 05:33:27;;;;;;;11.38;1.92;;;8.20;99.90;;;;;;4984634;28;20511;-58
2022/11/07 05:35:53;;;;;;;6.82;1.95;;;8.30;99.90;;;;;;4985908;28;20022;-59
2022/11/07 05:38:19;;;;;;;4.05;1.73;;;8.40;99.90;;;;;;4987388;28;20025;-58
2022/11/07 05:40:44;;;;;;;5.05;1.90;;;8.50;99.90;;;;;;4988910;28;20404;-59
2022/11/07 05:43:12;;;;;;;10.88;1.80;;;8.70;99.90;;;;;;4969180;28;20113;-58
2022/11/07 05:45:39;;;;;;;8.30;2.25;;;8.80;99.90;;;;;;4985356;28;20485;-60
2022/11/07 05:48:07;;;;;;;16.02;2.13;;;8.80;99.90;;;;;;4984095;28;20034;-60
2022/11/07 05:50:34;;;;;;;11.23;1.77;;;9.10;99.90;;;;;;4982123;28;20370;-58
2022/11/07 05:52:59;;;;;;;11.32;1.70;;;9.60;99.90;;;;;;4986901;28;20026;-57
2022/11/07 05:55:25;;;;;;;11.65;1.48;;;9.70;99.90;;;;;;4994093;28;20396;-54
2022/11/07 05:57:51;;;;;;;6.70;1.40;;;9.70;99.90;;;;;;4987548;28;20495;-57
2022/11/07 06:00:17;;;;;;;11.75;1.92;;;9.70;99.90;;;;;;4978825;28;20037;-58
2022/11/07 06:02:43;;;;;;;11.32;1.50;;;9.80;99.90;;;;;;4986023;28;20038;-59
2022/11/07 06:05:08;;;;;;;6.25;1.30;;;9.80;99.90;;;;;;4985552;28;20345;-58
2022/11/07 06:07:36;;;;;;;9.98;1.48;;;9.90;99.90;;;;;;4986751;28;20054;-59
2022/11/07 06:10:02;;;;;;;8.88;1.48;;;9.90;99.90;;;;;;4994385;28;20076;-59
2022/11/07 06:12:28;;;;;;;10.95;1.08;;;9.90;99.90;;;;;;4990922;28;20018;-59
2022/11/07 06:14:53;;;;;;;16.23;1.50;;;10.20;99.90;;;;;;4991342;28;20073;-59
2022/11/07 06:17:19;;;;;;;7.55;1.20;;;10.10;99.90;;;;;;4990874;28;20031;-58
2022/11/07 06:19:44;;;;;;;6.60;1.65;;;10.20;99.90;;;;;;4992352;28;20464;-59
2022/11/07 06:22:10;;;;;;;8.20;1.10;;;10.10;99.90;;;;;;4991033;28;20098;-59
2022/11/07 06:24:35;;;;;;;7.30;1.65;;;10.20;99.90;;;;;;4988128;28;20113;-59
2022/11/07 06:27:01;;;;;;;12.40;1.65;;;10.20;99.90;;;;;;4986838;28;20081;-58
2022/11/07 06:29:26;;;;;;;18.88;2.30;;;10.40;99.90;;;;;;4997392;28;20025;-58
2022/11/07 06:31:52;;;;;;;4.63;1.13;;;10.50;99.90;;;;;;4993403;28;20037;-56
2022/11/07 06:34:17;;;;;;;5.43;1.30;;;10.60;99.90;;;;;;4994038;28;20101;-58
2022/11/07 06:36:43;;;;;;;9.45;1.35;;;10.90;99.90;;;;;;4992754;28;20027;-56
2022/11/07 06:39:09;;;;;;;10.85;1.55;;;10.90;99.90;;;;;;4993080;28;20242;-58
2022/11/07 06:41:34;;;;;;;8.68;1.10;;;11.10;99.90;;;;;;4992137;28;20027;-58
2022/11/07 06:44:00;;;;;;;7.97;1.70;;;11.10;99.90;;;;;;4993948;28;20049;-58
2022/11/07 06:46:25;;;;;;;7.45;1.38;;;11.10;99.90;;;;;;4993583;28;20076;-58
2022/11/07 06:48:51;;;;;;;6.38;1.25;;;11.10;99.90;;;;;;4993586;28;20459;-59
2022/11/07 06:51:16;;;;;;;8.85;1.60;;;11.20;99.90;;;;;;4993595;28;20022;-59
2022/11/07 06:53:42;;;;;;;8.45;1.40;;;11.30;99.90;;;;;;4990661;28;20038;-58
2022/11/07 06:56:12;;;;;;;5.82;1.23;;;11.30;99.90;;;;;;4993297;28;20053;-55
2022/11/07 06:58:38;;;;;;;10.75;1.92;;;11.30;99.90;;;;;;4993486;28;20476;-57
2022/11/07 07:01:07;;;;;;;8.57;1.30;;;11.40;99.90;;;;;;4993040;28;20045;-58
2022/11/07 07:03:32;;;;;;;13.43;1.67;;;11.50;99.90;;;;;;4992804;28;20685;-57
2022/11/07 07:06:03;;;;;;;4.70;1.10;;;11.60;99.90;;;;;;4993148;28;20033;-58
2022/11/07 07:08:29;;;;;;;5.22;1.00;;;11.80;99.90;;;;;;4992432;28;20034;-58
2022/11/07 07:10:55;;;;;;;10.35;2.65;;;11.80;99.90;;;;;;4993069;28;20023;-59
2022/11/07 07:13:21;;;;;;;10.98;1.90;;;11.80;99.90;;;;;;4992926;28;20027;-57
2022/11/07 07:15:54;;;;;;;11.27;1.70;;;11.80;99.90;;;;;;4993256;28;20037;-55
2022/11/07 07:18:20;;;;;;;14.30;1.42;;;11.80;99.90;;;;;;4992145;28;20113;-58
2022/11/07 07:20:47;;;;;;;14.38;1.35;;;11.90;99.90;;;;;;4992600;28;20113;-58
2022/11/07 07:23:12;;;;;;;5.15;1.02;;;11.80;99.90;;;;;;4992370;28;20031;-58
2022/11/07 07:25:38;;;;;;;6.47;1.10;;;11.90;99.90;;;;;;4992681;28;20400;-58
2022/11/07 07:28:03;;;;;;;9.38;1.15;;;11.90;99.90;;;;;;4993876;28;20019;-59
2022/11/07 07:30:29;;;;;;;8.75;1.75;;;11.90;99.90;;;;;;4993153;28;20480;-56
2022/11/07 07:32:54;;;;;;;11.73;1.52;;;12.00;99.90;;;;;;4993366;28;20028;-56
2022/11/07 07:35:20;;;;;;;11.15;1.52;;;11.90;99.90;;;;;;4994083;28;20033;-59
2022/11/07 07:37:52;;;;;;;11.60;1.40;;;12.00;99.90;;;;;;4993901;28;20019;-59
2022/11/07 07:40:19;;;;;;;11.82;1.50;;;12.00;99.90;;;;;;4993587;28;20030;-57
2022/11/07 07:42:45;;;;;;;8.95;1.02;;;12.10;99.90;;;;;;4993880;28;20473;-55
2022/11/07 07:45:12;;;;;;;15.55;2.80;;;12.10;99.90;;;;;;4993525;28;20078;-58
2022/11/07 07:47:39;;;;;;;5.70;1.55;;;12.20;99.90;;;;;;4992946;28;20023;-58
2022/11/07 07:50:08;;;;;;;12.95;1.80;;;12.20;99.90;;;;;;4993264;28;20019;-59
2022/11/07 07:52:33;;;;;;;11.40;1.40;;;12.30;99.90;;;;;;4993477;28;20096;-57
2022/11/07 07:54:59;;;;;;;5.45;1.58;;;12.40;99.90;;;;;;4993380;28;20481;-57
2022/11/07 07:57:24;;;;;;;6.55;1.35;;;12.30;99.90;;;;;;4993567;28;20057;-57
2022/11/07 07:59:50;;;;;;;8.82;1.33;;;12.30;99.90;;;;;;4992660;28;20377;-58
2022/11/07 08:02:16;;;;;;;9.30;1.10;;;12.40;99.90;;;;;;4993507;28;20377;-57
2022/11/07 08:04:42;;;;;;;14.30;1.20;;;12.50;99.90;;;;;;4993524;28;20054;-58
2022/11/07 08:07:08;;;;;;;5.75;1.10;;;12.50;99.90;;;;;;4993466;28;20045;-57
2022/11/07 08:09:36;;;;;;;5.90;1.13;;;12.60;99.90;;;;;;4993132;28;20105;-57
2022/11/07 08:12:03;;;;;;;5.25;0.70;;;12.70;99.90;;;;;;4993628;28;20030;-57
2022/11/07 08:14:29;;;;;;;9.05;1.52;;;12.80;99.90;;;;;;4992097;28;20053;-57
2022/11/07 08:16:54;;;;;;;10.27;1.58;;;12.80;99.90;;;;;;4993500;28;20476;-54
2022/11/07 08:19:20;;;;;;;11.88;1.90;;;12.90;99.90;;;;;;4991151;28;20045;-56
2022/11/07 08:21:45;;;;;;;10.13;1.17;;;12.90;99.90;;;;;;4975773;28;20050;-57
2022/11/07 08:24:12;;;;;;;7.20;1.17;;;12.90;99.90;;;;;;4992632;28;20106;-57
2022/11/07 08:26:37;;;;;;;9.63;1.73;;;12.90;99.90;;;;;;4993229;28;20085;-52
2022/11/07 08:29:03;;;;;;;11.07;1.65;;;12.90;99.90;;;;;;4992369;28;20038;-57
2022/11/07 08:31:28;;;;;;;7.82;0.98;;;13.00;99.90;;;;;;4992695;28;20026;-58
2022/11/07 08:33:58;;;;;;;8.73;1.27;;;12.90;99.90;;;;;;4993077;28;20026;-56
2022/11/07 08:36:24;;;;;;;5.00;0.95;;;13.00;99.90;;;;;;4992620;28;20484;-57
2022/11/07 08:38:49;;;;;;;7.15;1.00;;;13.10;99.90;;;;;;4992152;28;20436;-57
2022/11/07 08:41:15;;;;;;;5.00;0.95;;;13.10;99.90;;;;;;4992550;28;20042;-56
2022/11/07 08:43:40;;;;;;;11.93;1.02;;;13.10;99.90;;;;;;4991145;28;20403;-56
2022/11/07 08:46:06;;;;;;;2.08;0.80;;;13.20;99.90;;;;;;4992711;28;20056;-55
2022/11/07 08:48:32;;;;;;;12.63;1.48;;;13.20;99.90;;;;;;4990868;28;20026;-55
2022/11/07 08:50:58;;;;;;;9.30;0.90;;;13.20;99.90;;;;;;4990788;28;20026;-56
2022/11/07 08:53:25;;;;;;;5.82;1.27;;;13.20;99.90;;;;;;4992551;28;20116;-57
2022/11/07 08:55:51;;;;;;;4.85;1.05;;;13.20;99.90;;;;;;4992498;28;20058;-56
2022/11/07 08:58:18;;;;;;;9.50;1.10;;;13.20;99.90;;;;;;4991711;28;20057;-58
2022/11/07 09:00:43;;;;;;;5.32;0.93;;;13.30;99.90;;;;;;4990768;28;20023;-57
2022/11/07 09:03:10;;;;;;;5.03;0.98;;;13.30;99.90;;;;;;4988736;28;20018;-59
2022/11/07 09:05:37;;;;;;;6.85;1.63;;;13.30;99.90;;;;;;4990717;28;20030;-59
2022/11/07 09:08:03;;;;;;;5.55;1.13;;;13.40;99.90;;;;;;4991653;28;20502;-59
2022/11/07 09:10:28;;;;;;;7.60;1.23;;;13.40;99.90;;;;;;4991770;28;20113;-56
2022/11/07 09:12:54;;;;;;;4.32;1.02;;;13.50;99.90;;;;;;4991427;28;20022;-58
2022/11/07 09:15:19;;;;;;;5.47;1.00;;;13.50;99.90;;;;;;4992686;28;20073;-58
2022/11/07 09:17:45;;;;;;;4.75;0.70;;;13.70;99.90;;;;;;4992071;28;20092;-58
2022/11/07 09:20:14;;;;;;;5.10;0.90;;;13.70;99.90;;;;;;4992018;28;20022;-56
2022/11/07 09:22:40;;;;;;;6.20;1.02;;;13.70;99.90;;;;;;4985981;28;20507;-56
2022/11/07 09:25:06;;;;;;;5.97;0.82;;;13.70;99.90;;;;;;4992287;28;20121;-58
2022/11/07 09:27:32;;;;;;;7.10;0.90;;;13.70;99.90;;;;;;4990688;28;20041;-57
2022/11/07 09:29:57;;;;;;;9.13;1.25;;;13.70;99.90;;;;;;4991932;28;20027;-57
2022/11/07 09:32:23;;;;;;;8.50;1.20;;;13.80;99.90;;;;;;4992170;28;20023;-57
2022/11/07 09:34:49;;;;;;;3.47;1.10;;;13.80;99.90;;;;;;4992012;28;20030;-57
2022/11/07 09:37:14;;;;;;;10.82;0.93;;;13.90;99.90;;;;;;4992155;28;20133;-57
2022/11/07 09:39:40;;;;;;;11.30;2.03;;;13.90;99.90;;;;;;4991884;28;20064;-57
2022/11/07 09:42:12;;;;;;;3.75;0.82;;;14.00;99.90;;;;;;4991362;28;20034;-58
2022/11/07 09:44:59;;;;;;;5.22;1.00;;;14.10;99.90;;;;;;4991870;28;20037;-57
2022/11/07 09:47:33;;;;;;;2.80;0.80;;;14.20;99.90;;;;;;4992865;28;20076;-58
2022/11/07 09:50:04;;;;;;;9.57;1.23;;;14.20;99.90;;;;;;5021282;23;20083;-57
2022/11/07 09:52:49;;;;;;;8.50;1.02;;;14.30;99.90;;;;;;5012782;28;20491;-57
2022/11/07 09:55:21;;;;;;;3.33;0.95;;;14.30;99.90;;;;;;5012255;28;20030;-56
2022/11/07 09:57:48;;;;;;;8.55;1.40;;;14.30;99.90;;;;;;5010356;28;20288;-56
2022/11/07 10:00:19;;;;;;;6.68;0.95;;;14.40;99.90;;;;;;4988563;28;21462;-56
2022/11/07 10:02:52;;;;;;;8.45;2.47;;;14.40;99.90;;;;;;4994915;28;20038;-58
2022/11/07 10:05:47;;;;;;;9.73;1.08;;;14.50;99.90;;;;;;4995884;28;20034;-54
2022/11/07 10:08:38;;;;;;;9.25;1.10;;;14.50;99.90;;;;;;4995767;28;20442;-60
2022/11/07 10:11:08;;;;;;;7.63;1.15;;;14.50;99.90;;;;;;4994142;28;20508;-58
2022/11/07 10:13:56;;;;;;;11.25;1.23;;;14.60;99.90;;;;;;4995254;28;20488;-59
2022/11/07 10:16:31;;;;;;;8.27;1.15;;;14.60;99.90;;;;;;4992767;28;20109;-60
2022/11/07 10:19:18;;;;;;;11.73;1.52;;;14.60;99.90;;;;;;4995481;28;20030;-58
2022/11/07 10:22:21;;;;;;;7.03;1.15;;;14.70;99.90;;;;;;4995443;28;20026;-61
2022/11/07 10:25:18;;;;;;;8.73;0.98;;;14.70;99.90;;;;;;4994646;28;20046;-56
2022/11/07 10:27:50;;;;;;;7.50;1.08;;;14.90;99.90;;;;;;4994654;28;20018;-57
2022/11/07 10:30:18;;;;;;;9.23;1.30;;;15.00;99.90;;;;;;4994951;28;20030;-58
2022/11/07 10:33:10;;;;;;;7.20;0.90;;;15.10;99.90;;;;;;4993391;28;20026;-54
2022/11/07 10:35:41;;;;;;;1.70;1.00;;;15.10;99.90;;;;;;4959647;28;20061;-57
2022/11/07 10:38:25;;;;;;;3.90;0.60;;;15.10;99.90;;;;;;4994055;28;20103;-58
2022/11/07 10:40:52;;;;;;;8.13;1.00;;;15.10;99.90;;;;;;4992892;28;20032;-57
2022/11/07 10:43:36;;;;;;;12.73;1.30;;;15.20;99.90;;;;;;4994747;28;20056;-56
2022/11/07 10:46:04;;;;;;;3.88;0.55;;;15.20;99.90;;;;;;4993917;28;20038;-56
2022/11/07 10:48:32;;;;;;;4.15;0.80;;;15.10;99.90;;;;;;4991425;28;20034;-55
2022/11/07 10:50:57;;;;;;;5.75;1.35;;;15.20;99.90;;;;;;4994187;28;20092;-56
2022/11/07 10:53:25;;;;;;;6.57;1.02;;;15.40;99.90;;;;;;4993541;28;20019;-57
2022/11/07 10:55:52;;;;;;;8.57;1.02;;;15.40;99.90;;;;;;4992868;28;20023;-54
2022/11/07 10:58:20;;;;;;;1.75;0.55;;;15.50;99.90;;;;;;4994343;28;20031;-54
2022/11/07 11:01:06;;;;;;;3.35;1.25;;;15.60;99.90;;;;;;4993128;28;20041;-59
2022/11/07 11:03:43;;;;;;;4.80;0.70;;;15.70;99.90;;;;;;4994267;28;20022;-52
2022/11/07 11:06:21;;;;;;;6.75;0.68;;;15.70;99.90;;;;;;4994167;28;20085;-53
2022/11/07 11:08:49;;;;;;;6.40;0.90;;;15.60;99.90;;;;;;4986822;28;20022;-53
2022/11/07 11:11:20;;;;;;;1.83;0.85;;;15.50;99.90;;;;;;4993939;28;20034;-52
2022/11/07 11:13:47;;;;;;;5.07;0.73;;;15.60;99.90;;;;;;4976618;28;20027;-56
2022/11/07 11:16:13;;;;;;;1.35;0.40;;;15.90;99.90;;;;;;4981127;28;20030;-56
2022/11/07 11:18:48;;;;;;;0.47;0.30;;;16.00;99.90;;;;;;4994041;28;20093;-55
2022/11/07 11:21:14;;;;;;;4.32;0.90;;;15.80;99.90;;;;;;4993509;28;20045;-56
2022/11/07 11:23:43;;;;;;;5.28;0.57;;;15.80;99.90;;;;;;4994073;28;20507;-57
2022/11/07 11:26:32;;;;;;;2.63;0.80;;;15.80;99.90;;;;;;4993081;28;20033;-56
2022/11/07 11:29:05;;;;;;;5.68;1.20;;;15.70;99.90;;;;;;4993693;28;20033;-59
2022/11/07 11:31:51;;;;;;;1.17;0.50;;;15.70;99.90;;;;;;4992362;28;20039;-57
2022/11/07 11:34:29;;;;;;;4.40;0.77;;;15.70;99.90;;;;;;4993804;28;20019;-54
2022/11/07 11:37:05;;;;;;;3.55;1.10;;;15.60;99.90;;;;;;4993852;28;20121;-55
2022/11/07 11:39:43;;;;;;;2.13;0.45;;;15.60;99.90;;;;;;4992503;28;20520;-57
2022/11/07 11:42:24;;;;;;;3.33;0.60;;;15.80;99.90;;;;;;4993643;28;20026;-60
2022/11/07 11:44:54;;;;;;;6.40;0.85;;;15.90;99.90;;;;;;4992704;28;20113;-55
2022/11/07 11:47:26;;;;;;;5.00;0.85;;;16.00;99.90;;;;;;4991404;28;20030;-58
2022/11/07 11:49:58;;;;;;;2.65;0.77;;;16.00;99.90;;;;;;4993017;28;20062;-55
2022/11/07 11:52:24;;;;;;;3.95;0.50;;;16.20;99.90;;;;;;4992800;28;20022;-58
2022/11/07 11:54:51;;;;;;;2.72;0.60;;;16.40;99.90;;;;;;4992463;28;20109;-60
2022/11/07 11:57:22;;;;;;;4.53;0.80;;;16.60;99.90;;;;;;4993506;28;20503;-56
2022/11/07 12:00:02;;;;;;;5.90;0.90;;;16.60;99.90;;;;;;4993306;28;20030;-52
2022/11/07 12:02:51;;;;;;;7.53;1.08;;;16.60;99.90;;;;;;4992473;28;20034;-59
2022/11/07 12:05:39;;;;;;;1.95;0.80;;;16.50;99.90;;;;;;4993426;28;20030;-58
2022/11/07 12:08:35;;;;;;;2.55;0.60;;;16.40;99.90;;;;;;4993291;28;20057;-58
2022/11/07 12:11:16;;;;;;;2.65;0.70;;;16.40;99.90;;;;;;4990497;28;20064;-56
2022/11/07 12:14:07;;;;;;;5.68;1.67;;;16.30;99.90;;;;;;4993316;28;20014;-58
2022/11/07 12:16:33;;;;;;;4.25;0.68;;;16.20;99.90;;;;;;4992185;28;20026;-53
2022/11/07 12:19:38;;;;;;;3.28;0.52;;;16.20;99.90;;;;;;4990594;28;20045;-56
2022/11/07 12:22:16;;;;;;;1.10;0.30;;;16.40;99.90;;;;;;4992803;28;20033;-52
2022/11/07 12:24:54;;;;;;;3.35;0.40;;;16.30;99.90;;;;;;4992987;28;20319;-59
2022/11/07 12:27:31;;;;;;;3.60;0.57;;;16.20;99.90;;;;;;4992820;28;20396;-57
2022/11/07 12:30:02;;;;;;;1.05;0.50;;;16.30;99.90;;;;;;4992517;28;20030;-56
2022/11/07 12:32:44;;;;;;;0.60;0.50;;;16.20;99.90;;;;;;4989902;28;20046;-58
2022/11/07 12:35:39;;;;;;;1.08;0.40;;;16.40;99.90;;;;;;4992941;28;20022;-55
2022/11/07 12:38:39;;;;;;;3.88;0.65;;;16.40;99.90;;;;;;4992772;28;20558;-56
2022/11/07 12:41:24;;;;;;;11.55;0.70;;;16.50;99.90;;;;;;4991849;28;20065;-61
2022/11/07 12:44:04;;;;;;;5.88;0.80;;;16.50;99.90;;;;;;4991205;28;20030;-59
2022/11/07 12:46:49;;;;;;;1.40;0.60;;;16.60;99.90;;;;;;4987766;28;20034;-55
2022/11/07 12:49:39;;;;;;;2.42;0.57;;;16.50;99.90;;;;;;4991720;28;20045;-58
2022/11/07 12:52:22;;;;;;;1.25;0.63;;;16.50;99.90;;;;;;4975267;28;20057;-59
2022/11/07 12:54:55;;;;;;;6.70;0.65;;;16.60;99.90;;;;;;4992606;28;20046;-59
2022/11/07 12:57:41;;;;;;;2.30;1.00;;;16.50;99.90;;;;;;4991742;28;20121;-59
2022/11/07 13:00:18;;;;;;;1.15;0.50;;;16.60;99.90;;;;;;4991077;28;20053;-56
2022/11/07 13:02:50;;;;;;;3.20;0.70;;;16.50;99.90;;;;;;4992089;28;20500;-56
2022/11/07 13:05:33;;;;;;;2.58;0.40;;;16.60;99.90;;;;;;4992145;28;20034;-58
2022/11/07 13:08:30;;;;;;;2.45;0.40;;;16.60;99.90;;;;;;4987664;28;20030;-59
2022/11/07 13:11:08;;;;;;;3.85;1.05;;;16.50;99.90;;;;;;4991436;28;20109;-54
2022/11/07 13:13:44;;;;;;;2.20;0.40;;;16.60;99.90;;;;;;4992239;28;20444;-58